Startpagina
METAR-TAF:

METAR-TAF

Vliegvelden :

Gibraltar, Gibraltar

Gibraltar Airport

breedte: 36-09N, lengte: 005-21W, hoogte: 5 m

Actueel weer

Dit bericht is 1 uur en het 12 minuten geleden gemaakt, om 10:50 UTC
Wind 14 kt uit het oostnoordoosten
Temperatuur 17°C
Vochtigheid 88%
Druk 1021 hPa
Zicht 10 km of meer
Weinig wolken op 1500 ft

METAR: LXGB 191050Z 07014KT 9999 FEW015 17/15 Q1021 NOSIG

Tijdstip: 13:02 (12:02 UTC)

Verwachting

Dit bericht is 1 uur en het 39 minuten geleden gemaakt, om 10:23 UTC
Verwachting geldig van 19 om 12 UTC tot 19 om 21 UTC
Wind 14 kt uit het oostnoordoosten
Zicht 10 km of meer
Weinig wolken op 1200 ft
Verspreide wolken op 2500 ft
Kans 40% :
Tijdelijke
van 19 om 12 UTC tot 19 om 21 UTC
Wind 15 kt uit het oosten met uitschieters tot 25 kt
Weinig wolken op 1200 ft
Verspreide wolken op 2000 ft

TAF: LXGB 191023Z 1912/1921 07014KT 9999 FEW012 SCT025 PROB40 TEMPO 1912/1921 08015G25KT FEW012 SCT020

Waarnemingen en weersverwachtingen van meer dan 4000 vliegvelden (METAR en TAF).

De beschikbare stations zijn de gele en rode punten op de kaart.

Ga met uw muis naar het station om de naam te zien.

Klik dan om waarnemingen en weersverwachtingen te zien.

kaart wijzigen: klik op de groene knoppen met een zwart kruis om in te zoomen, op de groene knop met een streepje om uit te zoomen of op de groene pijlen voor aangrenzende kaarten.


METAR-TAF: